Time;durP1;ratioP1;P1;durP2;ratioP2;P2;SDS_P1;SDS_P2;PMS_P1;PMS_P2;Temp;Humidity;BMP_temperature;BMP_pressure;BME280_temperature;BME280_humidity;BME280_pressure;Samples;Min_cycle;Max_cycle;Signal;HPM_P1;HPM_P2
2021/05/05 00:00:10;;;;;;;6.60;1.02;;;7.30;99.90;;;;;;5065242;28;20039;-76
2021/05/05 00:02:36;;;;;;;1.77;0.80;;;7.30;99.90;;;;;;5065304;28;20032;-76
2021/05/05 00:05:01;;;;;;;1.13;0.73;;;7.30;99.90;;;;;;5065392;28;20037;-74
2021/05/05 00:07:27;;;;;;;11.05;0.60;;;7.30;99.90;;;;;;5065037;28;20029;-74
2021/05/05 00:09:52;;;;;;;2.03;0.70;;;7.30;99.90;;;;;;5065481;28;20033;-72
2021/05/05 00:12:18;;;;;;;0.35;0.30;;;7.40;99.90;;;;;;5063801;28;20033;-75
2021/05/05 00:14:43;;;;;;;3.90;0.60;;;7.30;99.90;;;;;;5064841;28;20021;-74
2021/05/05 00:17:09;;;;;;;5.78;0.98;;;7.50;99.90;;;;;;5065085;28;20033;-72
2021/05/05 00:19:35;;;;;;;1.10;0.50;;;7.40;99.90;;;;;;5065240;28;20025;-75
2021/05/05 00:22:00;;;;;;;3.40;0.60;;;7.40;99.90;;;;;;5064826;28;20059;-71
2021/05/05 00:24:26;;;;;;;9.93;0.95;;;7.30;99.90;;;;;;5065251;28;20033;-75
2021/05/05 00:26:51;;;;;;;1.50;0.43;;;7.30;99.90;;;;;;5064850;28;20029;-75
2021/05/05 00:29:17;;;;;;;1.10;0.73;;;7.30;99.90;;;;;;5063408;28;20140;-74
2021/05/05 00:31:43;;;;;;;7.45;0.68;;;7.30;99.90;;;;;;5064849;28;20078;-75
2021/05/05 00:34:09;;;;;;;9.85;1.15;;;7.30;99.90;;;;;;5064897;28;20049;-75
2021/05/05 00:36:34;;;;;;;0.60;0.40;;;7.20;99.90;;;;;;5064787;28;20059;-76
2021/05/05 00:39:03;;;;;;;0.80;0.55;;;7.30;99.90;;;;;;5063740;28;20060;-75
2021/05/05 00:41:29;;;;;;;1.65;0.88;;;7.20;99.90;;;;;;5065102;28;20036;-76
2021/05/05 00:43:54;;;;;;;3.22;0.70;;;7.20;99.90;;;;;;5062873;28;20033;-75
2021/05/05 00:46:20;;;;;;;4.00;0.70;;;7.30;99.90;;;;;;5064761;28;20066;-74
2021/05/05 00:48:45;;;;;;;1.98;0.52;;;7.20;99.90;;;;;;5063308;28;20025;-75
2021/05/05 00:51:11;;;;;;;0.40;0.40;;;7.20;99.90;;;;;;5064599;28;20037;-74
2021/05/05 00:53:39;;;;;;;0.63;0.50;;;7.20;99.90;;;;;;5063939;28;20025;-77
2021/05/05 00:56:04;;;;;;;2.08;0.55;;;7.20;99.90;;;;;;5063261;28;20069;-74
2021/05/05 00:58:30;;;;;;;0.75;0.43;;;7.20;99.90;;;;;;5064346;28;20021;-76
2021/05/05 01:00:56;;;;;;;1.55;0.50;;;7.10;99.90;;;;;;5069763;28;20029;-72
2021/05/05 01:03:22;;;;;;;4.28;0.82;;;7.10;99.90;;;;;;5082141;28;20067;-75
2021/05/05 01:05:50;;;;;;;8.73;0.98;;;7.20;99.90;;;;;;5082814;28;20029;-79
2021/05/05 01:08:19;;;;;;;0.90;0.60;;;7.10;99.90;;;;;;5083584;28;20032;-75
2021/05/05 01:10:45;;;;;;;9.88;0.73;;;7.10;99.90;;;;;;5084457;28;20046;-74
2021/05/05 01:13:12;;;;;;;0.45;0.45;;;7.20;99.90;;;;;;5084246;28;20080;-77
2021/05/05 01:15:38;;;;;;;1.05;0.47;;;7.10;99.90;;;;;;5084630;28;20107;-73
2021/05/05 01:18:04;;;;;;;0.68;0.65;;;7.10;99.90;;;;;;5084393;28;20028;-73
2021/05/05 01:20:30;;;;;;;5.65;0.70;;;7.10;99.90;;;;;;5085166;28;20028;-74
2021/05/05 01:22:56;;;;;;;0.52;0.43;;;7.10;99.90;;;;;;5088667;28;20025;-73
2021/05/05 01:25:22;;;;;;;0.70;0.28;;;7.10;99.90;;;;;;5088126;28;20033;-76
2021/05/05 01:27:48;;;;;;;0.85;0.65;;;7.00;99.90;;;;;;5088398;28;20029;-72
2021/05/05 01:30:16;;;;;;;1.75;0.68;;;7.00;99.90;;;;;;5088362;28;20112;-71
2021/05/05 01:32:42;;;;;;;2.05;0.85;;;7.00;99.90;;;;;;5088156;28;20084;-72
2021/05/05 01:35:09;;;;;;;3.67;1.23;;;7.10;99.90;;;;;;5087907;28;20064;-72
2021/05/05 01:37:35;;;;;;;2.10;0.80;;;7.00;99.90;;;;;;5086927;28;20035;-76
2021/05/05 01:40:03;;;;;;;9.38;0.75;;;6.90;99.90;;;;;;5088120;28;20028;-76
2021/05/05 01:42:29;;;;;;;0.65;0.60;;;6.90;99.90;;;;;;5086852;28;20071;-74
2021/05/05 01:44:54;;;;;;;0.40;0.40;;;6.90;99.90;;;;;;5087953;28;20044;-74
2021/05/05 01:47:20;;;;;;;0.88;0.35;;;6.90;99.90;;;;;;5086574;28;20038;-79
2021/05/05 01:49:47;;;;;;;2.33;0.82;;;6.90;99.90;;;;;;5087929;28;20029;-76
2021/05/05 01:52:14;;;;;;;2.30;0.60;;;6.90;99.90;;;;;;5088116;28;20024;-74
2021/05/05 01:54:41;;;;;;;5.15;0.68;;;6.80;99.90;;;;;;5087535;28;20107;-75
2021/05/05 01:57:39;;;;;;;24.30;1.05;;;6.90;99.90;;;;;;5087466;28;20071;-73
2021/05/05 02:00:35;;;;;;;0.82;0.77;;;6.90;99.90;;;;;;5087656;28;20059;-74
2021/05/05 02:03:00;;;;;;;0.57;0.30;;;6.80;99.90;;;;;;5087008;28;20064;-75
2021/05/05 02:05:26;;;;;;;3.92;0.65;;;7.00;99.90;;;;;;5087843;28;20039;-74
2021/05/05 02:07:52;;;;;;;0.95;0.45;;;6.80;99.90;;;;;;5087571;28;20138;-75
2021/05/05 02:10:19;;;;;;;3.22;0.75;;;6.90;99.90;;;;;;5085909;28;20036;-73
2021/05/05 02:12:45;;;;;;;4.28;0.73;;;6.80;99.90;;;;;;5087648;28;20039;-70
2021/05/05 02:15:12;;;;;;;4.68;0.70;;;6.80;99.90;;;;;;5087051;28;20032;-74
2021/05/05 02:17:38;;;;;;;0.22;0.20;;;6.90;99.90;;;;;;5087515;28;20032;-76
2021/05/05 02:20:09;;;;;;;1.23;0.50;;;6.70;99.90;;;;;;5086501;28;20027;-73
2021/05/05 02:22:36;;;;;;;4.95;0.68;;;6.80;99.90;;;;;;5085604;28;20039;-81
2021/05/05 02:25:02;;;;;;;2.20;0.68;;;6.80;99.90;;;;;;5086296;28;20076;-76
2021/05/05 02:27:28;;;;;;;5.13;1.15;;;6.80;99.90;;;;;;5087510;28;20036;-76
2021/05/05 02:29:54;;;;;;;1.85;0.65;;;6.80;99.90;;;;;;5086814;28;20047;-74
2021/05/05 02:32:23;;;;;;;0.90;0.32;;;6.80;99.90;;;;;;5084612;28;20051;-77
2021/05/05 02:34:49;;;;;;;2.47;0.32;;;6.90;99.90;;;;;;5086761;28;20067;-76
2021/05/05 02:37:15;;;;;;;2.08;0.65;;;6.90;99.90;;;;;;5086784;28;20086;-74
2021/05/05 02:39:42;;;;;;;5.88;1.50;;;6.80;99.90;;;;;;5087219;28;20412;-75
2021/05/05 02:42:14;;;;;;;3.47;1.13;;;6.80;99.90;;;;;;5086905;28;20473;-77
2021/05/05 02:44:40;;;;;;;4.95;0.70;;;6.80;99.90;;;;;;5085465;28;20036;-74
2021/05/05 02:47:06;;;;;;;2.63;0.73;;;6.80;99.90;;;;;;5085963;28;20028;-76
2021/05/05 02:49:32;;;;;;;0.50;0.45;;;6.80;99.90;;;;;;5085286;28;20039;-74
2021/05/05 02:52:02;;;;;;;3.28;0.82;;;6.80;99.90;;;;;;5087099;28;20133;-81
2021/05/05 02:54:29;;;;;;;0.50;0.30;;;6.80;99.90;;;;;;5085916;28;20101;-77
2021/05/05 02:56:54;;;;;;;0.52;0.28;;;6.80;99.90;;;;;;5086397;28;20048;-74
2021/05/05 02:59:20;;;;;;;2.20;0.45;;;6.80;99.90;;;;;;5086674;28;20028;-73
2021/05/05 03:01:46;;;;;;;0.98;0.60;;;6.80;99.90;;;;;;5086833;28;20090;-80
2021/05/05 03:04:11;;;;;;;1.83;0.75;;;6.80;99.90;;;;;;5085086;28;20074;-74
2021/05/05 03:06:37;;;;;;;1.58;0.57;;;6.80;99.90;;;;;;5085220;28;20092;-77
2021/05/05 03:09:04;;;;;;;1.33;0.80;;;6.80;99.90;;;;;;5085530;28;20093;-72
2021/05/05 03:11:30;;;;;;;1.90;0.90;;;6.80;99.90;;;;;;5086369;28;20146;-74
2021/05/05 03:13:56;;;;;;;7.35;0.95;;;6.80;99.90;;;;;;5086672;28;20068;-74
2021/05/05 03:16:23;;;;;;;3.63;0.75;;;6.80;99.90;;;;;;5086251;28;20044;-76
2021/05/05 03:18:49;;;;;;;0.68;0.28;;;6.80;99.90;;;;;;5086075;28;20033;-80
2021/05/05 03:21:14;;;;;;;5.03;0.93;;;6.80;99.90;;;;;;5085059;28;20027;-75
2021/05/05 03:23:40;;;;;;;7.88;0.90;;;6.70;99.90;;;;;;5084989;28;20058;-73
2021/05/05 03:26:06;;;;;;;3.15;1.30;;;6.80;99.90;;;;;;5085891;28;20025;-76
2021/05/05 03:28:31;;;;;;;1.17;0.30;;;6.70;99.90;;;;;;5086372;28;20079;-76
2021/05/05 03:30:57;;;;;;;1.52;0.55;;;6.70;99.90;;;;;;5086218;28;20025;-71
2021/05/05 03:33:22;;;;;;;3.72;0.80;;;6.80;99.90;;;;;;5084588;28;20048;-73
2021/05/05 03:35:48;;;;;;;1.15;0.50;;;6.70;99.90;;;;;;5085582;28;20052;-74
2021/05/05 03:38:13;;;;;;;7.07;0.85;;;6.70;99.90;;;;;;5085792;28;20029;-75
2021/05/05 03:40:39;;;;;;;6.20;1.40;;;6.70;99.90;;;;;;5084190;28;20408;-77
2021/05/05 03:43:05;;;;;;;3.80;0.80;;;6.80;99.90;;;;;;5085576;28;20487;-79
2021/05/05 03:45:31;;;;;;;5.63;0.98;;;6.70;99.90;;;;;;5084450;28;20054;-79
2021/05/05 03:47:57;;;;;;;5.88;1.13;;;6.60;99.90;;;;;;5085909;28;20107;-79
2021/05/05 03:50:23;;;;;;;1.95;0.55;;;6.70;99.90;;;;;;5085691;28;20032;-75
2021/05/05 03:52:49;;;;;;;1.50;1.13;;;6.70;99.90;;;;;;5084289;28;20366;-72
2021/05/05 03:55:15;;;;;;;6.28;0.45;;;6.70;99.90;;;;;;5084062;28;20035;-79
2021/05/05 03:57:40;;;;;;;1.40;0.65;;;6.70;99.90;;;;;;5085261;28;20037;-76
2021/05/05 04:00:07;;;;;;;10.57;1.40;;;6.60;99.90;;;;;;5085266;28;20016;-76
2021/05/05 04:02:33;;;;;;;2.35;0.60;;;6.70;99.90;;;;;;5085582;28;20052;-75
2021/05/05 04:04:59;;;;;;;1.98;0.77;;;6.70;99.90;;;;;;5085594;28;20020;-72
2021/05/05 04:07:24;;;;;;;0.80;0.40;;;6.70;99.90;;;;;;5085306;28;20029;-73
2021/05/05 04:09:50;;;;;;;5.97;0.50;;;6.70;99.90;;;;;;5084074;28;20031;-75
2021/05/05 04:12:16;;;;;;;4.78;1.42;;;6.60;99.90;;;;;;5084981;28;20044;-74
2021/05/05 04:14:42;;;;;;;4.63;0.80;;;6.70;99.90;;;;;;5083817;28;20044;-75
2021/05/05 04:17:08;;;;;;;5.60;0.65;;;6.70;99.90;;;;;;5085080;28;20048;-77
2021/05/05 04:19:35;;;;;;;8.20;1.25;;;6.70;99.90;;;;;;5083546;28;20363;-77
2021/05/05 04:22:02;;;;;;;5.78;0.73;;;6.70;99.90;;;;;;5083919;28;20024;-75
2021/05/05 04:24:28;;;;;;;6.82;0.82;;;6.70;99.90;;;;;;5084205;28;20032;-72
2021/05/05 04:26:54;;;;;;;1.10;0.45;;;6.70;99.90;;;;;;5083464;28;20028;-75
2021/05/05 04:29:20;;;;;;;3.28;1.70;;;6.70;99.90;;;;;;5083510;28;20020;-78
2021/05/05 04:31:47;;;;;;;3.40;0.95;;;6.70;99.90;;;;;;5083326;28;20021;-72
2021/05/05 04:34:13;;;;;;;1.55;0.50;;;6.70;99.90;;;;;;5083278;28;20044;-74
2021/05/05 04:36:38;;;;;;;1.13;0.65;;;6.60;99.90;;;;;;5084778;28;20044;-77
2021/05/05 04:39:04;;;;;;;2.28;1.00;;;6.60;99.90;;;;;;5084898;28;20038;-73
2021/05/05 04:41:30;;;;;;;4.03;0.85;;;6.60;99.90;;;;;;5083757;28;20028;-77
2021/05/05 04:43:56;;;;;;;3.35;1.13;;;6.60;99.90;;;;;;5084907;28;20078;-70
2021/05/05 04:46:24;;;;;;;3.08;1.13;;;6.60;99.90;;;;;;5084647;28;20033;-75
2021/05/05 04:48:50;;;;;;;2.80;1.10;;;6.50;99.90;;;;;;5082963;28;20201;-74
2021/05/05 04:51:15;;;;;;;6.07;0.70;;;6.60;99.90;;;;;;5084648;28;20381;-75
2021/05/05 04:53:41;;;;;;;1.38;0.80;;;6.60;99.90;;;;;;5084443;28;20033;-75
2021/05/05 04:56:07;;;;;;;2.15;0.73;;;6.60;99.90;;;;;;5083540;28;20064;-74
2021/05/05 04:58:32;;;;;;;8.95;1.25;;;6.60;99.90;;;;;;5077788;28;20029;-73
2021/05/05 05:00:58;;;;;;;0.65;0.40;;;6.60;99.90;;;;;;5069522;28;20025;-72
2021/05/05 05:03:24;;;;;;;6.90;1.08;;;6.60;99.90;;;;;;5064476;28;20029;-75
2021/05/05 05:05:49;;;;;;;4.00;0.98;;;6.50;99.90;;;;;;5064530;28;20082;-75
2021/05/05 05:08:15;;;;;;;9.70;0.82;;;6.50;99.90;;;;;;5063887;28;20474;-78
2021/05/05 05:10:40;;;;;;;1.77;0.63;;;6.60;99.90;;;;;;5064350;28;20025;-75
2021/05/05 05:13:06;;;;;;;0.60;0.57;;;6.60;99.90;;;;;;5079793;28;20078;-75
2021/05/05 05:15:32;;;;;;;0.80;0.57;;;6.60;99.90;;;;;;5064609;28;20465;-73
2021/05/05 05:17:57;;;;;;;4.68;1.52;;;6.60;99.90;;;;;;5069921;28;20056;-72
2021/05/05 05:20:23;;;;;;;3.30;1.13;;;6.70;99.90;;;;;;5082445;28;20043;-76
2021/05/05 05:22:51;;;;;;;8.60;0.88;;;6.70;99.90;;;;;;5082628;28;20055;-75
2021/05/05 05:25:17;;;;;;;2.17;0.80;;;6.70;99.90;;;;;;5084234;28;20024;-74
2021/05/05 05:27:42;;;;;;;7.72;0.80;;;6.90;99.90;;;;;;5084308;28;20104;-77
2021/05/05 05:30:09;;;;;;;3.15;1.42;;;7.00;99.90;;;;;;5083868;28;20031;-74
2021/05/05 05:32:35;;;;;;;1.70;1.25;;;7.00;99.90;;;;;;5084436;28;20025;-74
2021/05/05 05:35:01;;;;;;;1.95;1.02;;;7.00;99.90;;;;;;5084395;28;20067;-74
2021/05/05 05:37:27;;;;;;;2.58;1.20;;;6.90;99.90;;;;;;5080252;28;20044;-77
2021/05/05 05:39:53;;;;;;;3.17;1.40;;;6.80;99.90;;;;;;5073199;28;20032;-79
2021/05/05 05:42:18;;;;;;;5.68;1.35;;;6.80;99.90;;;;;;5084369;28;20051;-73
2021/05/05 05:44:44;;;;;;;5.32;1.08;;;6.80;99.90;;;;;;5084122;28;20080;-76
2021/05/05 05:47:10;;;;;;;1.10;0.50;;;6.80;99.90;;;;;;5084199;28;20032;-76
2021/05/05 05:49:35;;;;;;;6.30;1.02;;;6.80;99.90;;;;;;5082956;28;20021;-78
2021/05/05 05:52:01;;;;;;;0.80;0.77;;;6.70;99.90;;;;;;5084038;28;20051;-76
2021/05/05 05:54:27;;;;;;;1.23;0.93;;;6.70;99.90;;;;;;5082922;28;20028;-74
2021/05/05 05:56:53;;;;;;;2.72;1.40;;;6.70;99.90;;;;;;5083701;28;20056;-78
2021/05/05 05:59:18;;;;;;;1.80;1.30;;;6.70;99.90;;;;;;5082632;28;20092;-76
2021/05/05 06:01:44;;;;;;;4.70;0.57;;;6.70;99.90;;;;;;5082775;28;20088;-74
2021/05/05 06:04:09;;;;;;;5.50;0.90;;;6.60;99.90;;;;;;5072134;28;20025;-78
2021/05/05 06:06:35;;;;;;;2.67;0.68;;;6.70;99.90;;;;;;5083348;28;20024;-73
2021/05/05 06:09:01;;;;;;;4.30;1.00;;;6.70;99.90;;;;;;5086820;28;20036;-79
2021/05/05 06:11:26;;;;;;;2.05;1.38;;;6.70;99.90;;;;;;5087612;28;20123;-77
2021/05/05 06:13:52;;;;;;;2.00;0.77;;;6.80;99.90;;;;;;5089568;28;20051;-76
2021/05/05 06:16:18;;;;;;;7.13;1.05;;;6.80;99.90;;;;;;5090887;28;20047;-74
2021/05/05 06:18:44;;;;;;;15.02;1.63;;;6.80;99.90;;;;;;5087267;28;20123;-76
2021/05/05 06:21:10;;;;;;;0.63;0.47;;;6.80;99.90;;;;;;5087855;28;20028;-75
2021/05/05 06:23:35;;;;;;;1.05;0.65;;;6.80;99.90;;;;;;5087874;28;20055;-76
2021/05/05 06:26:01;;;;;;;6.60;0.95;;;6.80;99.90;;;;;;5087529;28;20078;-74
2021/05/05 06:28:27;;;;;;;1.77;0.65;;;7.00;99.90;;;;;;5087756;28;20060;-74
2021/05/05 06:30:54;;;;;;;5.82;0.80;;;6.80;99.90;;;;;;5086368;28;20028;-78
2021/05/05 06:33:20;;;;;;;3.15;1.67;;;6.90;99.90;;;;;;5085878;28;20020;-78
2021/05/05 06:35:46;;;;;;;4.68;1.38;;;6.90;99.90;;;;;;5086185;28;20045;-75
2021/05/05 06:38:11;;;;;;;7.47;1.52;;;7.00;99.90;;;;;;5087458;28;20182;-74
2021/05/05 06:40:37;;;;;;;1.05;0.40;;;7.00;99.90;;;;;;5087578;28;20060;-78
2021/05/05 06:43:02;;;;;;;0.73;0.40;;;7.00;99.90;;;;;;5087513;28;20024;-73
2021/05/05 06:45:28;;;;;;;9.55;1.35;;;7.10;99.90;;;;;;5085658;28;20078;-75
2021/05/05 06:47:54;;;;;;;1.98;1.02;;;7.00;99.90;;;;;;5086213;28;20032;-74
2021/05/05 06:50:19;;;;;;;3.35;1.02;;;7.10;99.90;;;;;;5087166;28;20033;-76
2021/05/05 06:52:45;;;;;;;4.65;1.10;;;7.10;99.90;;;;;;5087282;28;20021;-80
2021/05/05 06:55:11;;;;;;;5.57;1.10;;;7.10;99.90;;;;;;5087277;28;20052;-76
2021/05/05 06:57:37;;;;;;;5.20;1.02;;;7.10;99.90;;;;;;5086022;28;20036;-74
2021/05/05 07:00:07;;;;;;;4.18;0.82;;;7.20;99.90;;;;;;5087135;28;20029;-75
2021/05/05 07:02:33;;;;;;;7.45;1.52;;;7.20;99.90;;;;;;5076339;28;20032;-73
2021/05/05 07:04:59;;;;;;;11.25;1.70;;;7.30;99.90;;;;;;5082231;28;20055;-76
2021/05/05 07:07:28;;;;;;;1.45;0.65;;;7.30;99.90;;;;;;5065848;28;20039;-77
2021/05/05 07:09:54;;;;;;;1.65;0.90;;;7.30;99.90;;;;;;5066197;28;20052;-75
2021/05/05 07:12:19;;;;;;;1.23;0.52;;;7.40;99.90;;;;;;5065286;28;20021;-72
2021/05/05 07:14:45;;;;;;;4.75;1.48;;;7.40;99.90;;;;;;5067181;28;20021;-78
2021/05/05 07:17:11;;;;;;;20.52;1.02;;;7.40;99.90;;;;;;5067336;28;20045;-76
2021/05/05 07:19:36;;;;;;;10.07;1.20;;;7.50;99.90;;;;;;5066956;28;20505;-73
2021/05/05 07:22:02;;;;;;;1.38;0.60;;;7.50;99.90;;;;;;5067288;28;20029;-75
2021/05/05 07:24:28;;;;;;;5.80;1.77;;;7.60;99.90;;;;;;5065023;28;20028;-78
2021/05/05 07:26:53;;;;;;;12.05;1.95;;;7.50;99.90;;;;;;5065029;28;20066;-75
2021/05/05 07:29:19;;;;;;;2.08;0.75;;;7.50;99.90;;;;;;5075127;28;20035;-79
2021/05/05 07:31:46;;;;;;;4.95;1.20;;;7.50;99.90;;;;;;5070675;28;20029;-74
2021/05/05 07:34:14;;;;;;;5.60;1.23;;;7.60;99.90;;;;;;5081407;28;20071;-76
2021/05/05 07:36:44;;;;;;;7.93;1.35;;;7.60;99.90;;;;;;5064526;28;20497;-76
2021/05/05 07:47:11;;;;;;;2.33;0.70;;;7.70;99.90;;;;;;5065306;28;20124;-78
2021/05/05 07:49:56;;;;;;;6.03;1.58;;;7.70;99.90;;;;;;5081186;28;20119;-75
2021/05/05 07:52:22;;;;;;;15.05;1.42;;;7.70;99.90;;;;;;5066057;28;20047;-77
2021/05/05 07:54:48;;;;;;;8.70;1.27;;;7.70;99.90;;;;;;5081782;28;20056;-77
2021/05/05 07:57:15;;;;;;;4.18;0.85;;;7.80;99.90;;;;;;5065587;28;20463;-76
2021/05/05 07:59:41;;;;;;;2.78;0.88;;;7.80;99.90;;;;;;5081761;28;20025;-75
2021/05/05 08:02:07;;;;;;;10.07;0.93;;;7.90;99.90;;;;;;5066520;28;20083;-73
2021/05/05 08:04:33;;;;;;;10.45;1.35;;;8.00;99.90;;;;;;5081186;28;20056;-78
2021/05/05 08:07:01;;;;;;;0.70;0.40;;;8.10;99.90;;;;;;5064512;28;20025;-79
2021/05/05 08:09:27;;;;;;;8.00;1.20;;;8.20;99.90;;;;;;5064430;28;20021;-78
2021/05/05 08:11:53;;;;;;;5.30;1.58;;;8.30;99.90;;;;;;5065267;28;20025;-75
2021/05/05 08:14:19;;;;;;;7.93;1.08;;;8.20;99.90;;;;;;5064055;28;20040;-74
2021/05/05 08:16:46;;;;;;;2.40;1.17;;;8.30;99.90;;;;;;5064939;28;20079;-77
2021/05/05 08:19:12;;;;;;;2.70;0.95;;;8.40;99.90;;;;;;5065121;28;20060;-75
2021/05/05 08:21:37;;;;;;;5.97;1.40;;;8.40;99.90;;;;;;5065555;28;20036;-75
2021/05/05 08:24:04;;;;;;;2.70;0.88;;;8.40;99.90;;;;;;5074718;28;20048;-76
2021/05/05 08:26:31;;;;;;;3.40;1.65;;;8.30;99.90;;;;;;5075096;28;20028;-75
2021/05/05 08:28:58;;;;;;;3.67;1.17;;;8.30;99.90;;;;;;5063625;28;20029;-75
2021/05/05 08:31:24;;;;;;;16.73;1.38;;;8.20;99.90;;;;;;5063781;28;20025;-74
2021/05/05 08:33:50;;;;;;;3.47;1.17;;;8.00;99.90;;;;;;5063388;28;20105;-75
2021/05/05 08:36:15;;;;;;;3.47;1.30;;;7.80;99.90;;;;;;5065352;28;20052;-74
2021/05/05 08:38:41;;;;;;;10.75;1.35;;;7.80;99.90;;;;;;5070617;28;20108;-74
2021/05/05 08:41:10;;;;;;;2.83;0.95;;;7.40;99.90;;;;;;5072807;28;20022;-76
2021/05/05 08:43:36;;;;;;;4.75;0.93;;;7.40;99.90;;;;;;5080234;28;20023;-75
2021/05/05 08:46:05;;;;;;;7.45;1.65;;;7.20;99.90;;;;;;5083251;28;20116;-77
2021/05/05 08:48:32;;;;;;;18.42;1.70;;;7.20;99.90;;;;;;5085767;28;20462;-72
2021/05/05 08:51:00;;;;;;;6.32;1.55;;;7.20;99.90;;;;;;5085070;28;20062;-71
2021/05/05 08:53:25;;;;;;;0.68;0.65;;;7.10;99.90;;;;;;5084429;28;20024;-73
2021/05/05 08:55:51;;;;;;;8.07;1.33;;;7.20;99.90;;;;;;5084861;28;20043;-78
2021/05/05 08:58:16;;;;;;;3.92;1.13;;;7.20;99.90;;;;;;5083668;28;20059;-74
2021/05/05 09:00:42;;;;;;;2.80;0.75;;;7.40;99.90;;;;;;5073367;28;20093;-73
2021/05/05 09:03:09;;;;;;;3.45;1.15;;;7.50;99.90;;;;;;5077298;28;20037;-76
2021/05/05 09:05:52;;;;;;;2.47;1.38;;;7.60;99.90;;;;;;5077379;28;20020;-73
2021/05/05 09:08:21;;;;;;;5.73;0.97;;;7.60;99.90;;;;;;5080593;28;20097;-75
2021/05/05 09:11:02;;;;;;;6.78;1.38;;;7.70;99.90;;;;;;5074979;28;20027;-74
2021/05/05 09:13:51;;;;;;;6.07;0.75;;;7.80;99.90;;;;;;5084905;28;20027;-73
2021/05/05 09:16:23;;;;;;;2.58;0.80;;;7.80;99.90;;;;;;5067171;28;20032;-76
2021/05/05 09:19:15;;;;;;;5.07;1.02;;;7.80;99.90;;;;;;5069056;28;20036;-77
2021/05/05 09:21:43;;;;;;;5.60;1.23;;;7.70;99.90;;;;;;5070389;28;20036;-75
2021/05/05 09:24:31;;;;;;;3.30;0.90;;;7.70;99.90;;;;;;5084732;28;20025;-80
2021/05/05 09:26:59;;;;;;;2.58;1.00;;;7.60;99.90;;;;;;5084941;28;20450;-73
2021/05/05 09:29:38;;;;;;;5.70;1.25;;;7.60;99.90;;;;;;5082938;28;20123;-79
2021/05/05 09:32:05;;;;;;;3.17;1.17;;;7.60;99.90;;;;;;5084601;28;20040;-76
2021/05/05 09:34:31;;;;;;;5.35;0.85;;;7.70;99.90;;;;;;5084513;28;20040;-81
2021/05/05 09:36:59;;;;;;;7.93;0.80;;;7.90;99.90;;;;;;5083499;28;20064;-72
2021/05/05 09:39:39;;;;;;;6.03;1.67;;;8.00;99.90;;;;;;5077811;28;20035;-74
2021/05/05 09:42:26;;;;;;;2.13;0.93;;;8.00;99.90;;;;;;5066134;28;20021;-78
2021/05/05 09:45:05;;;;;;;5.88;0.80;;;8.00;99.90;;;;;;5068492;28;20055;-76
2021/05/05 09:47:56;;;;;;;2.67;1.05;;;8.10;99.90;;;;;;5066891;28;20472;-77
2021/05/05 09:50:35;;;;;;;6.55;0.63;;;8.10;99.90;;;;;;5066998;28;20033;-74
2021/05/05 09:53:23;;;;;;;1.10;0.50;;;8.10;99.90;;;;;;5066962;28;20036;-76
2021/05/05 09:55:52;;;;;;;11.68;0.88;;;8.10;99.90;;;;;;5067796;28;20036;-77
2021/05/05 09:58:29;;;;;;;1.92;0.80;;;8.20;99.90;;;;;;5066143;28;20040;-74
2021/05/05 10:01:20;;;;;;;1.63;0.60;;;8.20;99.90;;;;;;5087792;28;20028;-76
2021/05/05 10:03:48;;;;;;;8.50;1.02;;;8.10;99.90;;;;;;5087234;28;20024;-73
2021/05/05 10:06:40;;;;;;;2.03;0.82;;;8.10;99.90;;;;;;5087875;28;20025;-74
2021/05/05 10:09:07;;;;;;;1.38;0.50;;;8.10;99.90;;;;;;5087810;28;20555;-77
2021/05/05 10:11:37;;;;;;;2.42;0.73;;;8.10;99.90;;;;;;5070557;28;20059;-78
2021/05/05 10:14:09;;;;;;;6.32;1.00;;;8.30;99.90;;;;;;5067923;28;20051;-75
2021/05/05 10:16:39;;;;;;;0.28;0.25;;;8.40;99.90;;;;;;5067723;28;20044;-75
2021/05/05 10:19:07;;;;;;;1.85;0.75;;;8.40;99.90;;;;;;5066676;28;20029;-75
2021/05/05 10:21:35;;;;;;;0.32;0.32;;;8.50;99.90;;;;;;5067754;28;20029;-76
2021/05/05 10:24:02;;;;;;;0.68;0.60;;;8.30;99.90;;;;;;5066214;28;20032;-74
2021/05/05 10:26:28;;;;;;;2.45;0.47;;;8.30;99.90;;;;;;5067834;28;20474;-76
2021/05/05 10:28:54;;;;;;;3.13;0.82;;;8.40;99.90;;;;;;5074307;28;20033;-76
2021/05/05 10:31:27;;;;;;;0.70;0.47;;;8.50;99.90;;;;;;5074475;28;20032;-75
2021/05/05 10:33:57;;;;;;;6.13;0.32;;;8.70;99.90;;;;;;5085821;28;20400;-76
2021/05/05 10:36:38;;;;;;;0.32;0.32;;;8.70;99.90;;;;;;5087730;28;20036;-78
2021/05/05 10:39:18;;;;;;;6.00;0.38;;;8.60;99.90;;;;;;5086247;28;20035;-71
2021/05/05 10:42:12;;;;;;;0.55;0.45;;;8.40;99.90;;;;;;5087129;28;20033;-72
2021/05/05 10:44:58;;;;;;;0.40;0.17;;;8.20;99.90;;;;;;5087007;28;20515;-79
2021/05/05 10:47:27;;;;;;;0.95;0.47;;;8.00;99.90;;;;;;5087468;28;20449;-75
2021/05/05 10:49:59;;;;;;;0.60;0.40;;;7.90;99.90;;;;;;5085877;28;20032;-75
2021/05/05 10:52:30;;;;;;;1.08;0.57;;;7.90;99.90;;;;;;5086351;28;20029;-74
2021/05/05 10:54:57;;;;;;;0.10;0.10;;;7.80;99.90;;;;;;5085995;28;20020;-76
2021/05/05 10:57:25;;;;;;;2.83;0.82;;;7.70;99.90;;;;;;5086967;28;20036;-76
2021/05/05 10:59:57;;;;;;;1.38;0.77;;;7.60;99.90;;;;;;5086486;28;20028;-76
2021/05/05 11:02:47;;;;;;;4.45;1.15;;;7.50;99.90;;;;;;5087004;28;20374;-73
2021/05/05 11:05:17;;;;;;;0.80;0.40;;;7.50;99.90;;;;;;5075607;28;20047;-76
2021/05/05 11:07:46;;;;;;;1.27;0.77;;;7.50;99.90;;;;;;5086010;28;20084;-80
2021/05/05 11:10:36;;;;;;;1.15;1.00;;;7.60;99.90;;;;;;5086183;28;20033;-75
2021/05/05 11:13:22;;;;;;;0.85;0.50;;;7.70;99.90;;;;;;5084748;28;20021;-81
2021/05/05 11:15:48;;;;;;;3.15;0.68;;;7.80;99.90;;;;;;5075697;28;20029;-72
2021/05/05 11:18:29;;;;;;;0.70;0.35;;;7.80;99.90;;;;;;5082643;28;20503;-75
2021/05/05 11:20:57;;;;;;;0.63;0.43;;;7.80;99.90;;;;;;5075277;28;20032;-73
2021/05/05 11:23:35;;;;;;;0.93;0.65;;;7.80;99.90;;;;;;5065527;28;20025;-71
2021/05/05 11:26:22;;;;;;;2.47;0.70;;;7.70;99.90;;;;;;5064423;28;20024;-76
2021/05/05 11:28:51;;;;;;;0.85;0.47;;;7.70;99.90;;;;;;5065768;28;20025;-73
2021/05/05 11:31:16;;;;;;;0.80;0.70;;;7.50;99.90;;;;;;5070846;28;20021;-76
2021/05/05 11:33:58;;;;;;;3.22;0.82;;;7.50;99.90;;;;;;5086019;28;20032;-75
2021/05/05 11:36:24;;;;;;;6.40;1.15;;;7.70;99.90;;;;;;5085036;28;20127;-74
2021/05/05 11:38:50;;;;;;;5.38;0.75;;;7.70;99.90;;;;;;5085931;28;20029;-77
2021/05/05 11:41:21;;;;;;;1.33;0.43;;;7.70;99.90;;;;;;5083843;28;20385;-75
2021/05/05 11:43:47;;;;;;;1.23;0.82;;;7.70;99.90;;;;;;5084472;28;20051;-74
2021/05/05 11:46:13;;;;;;;6.70;0.57;;;7.80;99.90;;;;;;5085375;28;20028;-73
2021/05/05 11:48:40;;;;;;;1.38;0.95;;;7.80;99.90;;;;;;5084572;28;20021;-72
2021/05/05 11:51:16;;;;;;;0.90;0.70;;;7.80;99.90;;;;;;5086042;28;20032;-74
2021/05/05 11:53:42;;;;;;;0.57;0.35;;;7.70;99.90;;;;;;5085334;28;20395;-76
2021/05/05 11:56:20;;;;;;;0.47;0.47;;;7.80;99.90;;;;;;5085308;28;20024;-72
2021/05/05 11:58:57;;;;;;;3.38;0.73;;;7.90;99.90;;;;;;5084390;28;20098;-73
2021/05/05 12:01:37;;;;;;;1.35;0.57;;;8.00;99.90;;;;;;5083665;28;20029;-72
2021/05/05 12:04:18;;;;;;;3.67;0.65;;;8.20;99.90;;;;;;5076554;28;20088;-76
2021/05/05 12:06:57;;;;;;;5.18;1.55;;;8.50;99.90;;;;;;5074582;28;20043;-75
2021/05/05 12:09:34;;;;;;;3.00;0.90;;;8.70;99.90;;;;;;5082963;28;20032;-74
2021/05/05 12:12:17;;;;;;;1.02;0.85;;;8.80;99.90;;;;;;5071980;28;20056;-77
2021/05/05 12:14:52;;;;;;;2.50;1.23;;;9.10;99.90;;;;;;5064913;28;20079;-75
2021/05/05 12:17:35;;;;;;;1.42;0.52;;;9.30;99.90;;;;;;5063228;28;20032;-74
2021/05/05 12:20:10;;;;;;;2.72;1.27;;;9.40;99.90;;;;;;5065221;28;20104;-79
2021/05/05 12:22:53;;;;;;;1.77;1.05;;;9.40;99.90;;;;;;5064317;28;20155;-78
2021/05/05 12:25:24;;;;;;;1.80;1.35;;;9.50;99.90;;;;;;5080049;28;20029;-78
2021/05/05 12:28:17;;;;;;;2.17;1.02;;;9.70;99.90;;;;;;5063881;28;20025;-76
2021/05/05 12:30:51;;;;;;;9.80;1.45;;;9.40;99.90;;;;;;5058764;28;20090;-76
2021/05/05 12:33:19;;;;;;;4.77;1.03;;;9.50;99.90;;;;;;5079218;28;20025;-75
2021/05/05 12:35:45;;;;;;;1.05;0.63;;;9.50;99.90;;;;;;5062754;28;20065;-75
2021/05/05 12:38:17;;;;;;;2.67;0.65;;;9.80;99.90;;;;;;5063009;28;20067;-76
2021/05/05 12:40:44;;;;;;;1.77;0.80;;;10.00;99.90;;;;;;5079837;28;20497;-73
2021/05/05 12:43:26;;;;;;;0.55;0.45;;;10.00;99.90;;;;;;5071833;28;20020;-79
2021/05/05 12:45:53;;;;;;;4.13;0.80;;;10.00;99.90;;;;;;5084488;28;20111;-79
2021/05/05 12:48:30;;;;;;;2.05;0.55;;;10.00;99.90;;;;;;5082754;28;20021;-74
2021/05/05 12:51:14;;;;;;;1.42;0.90;;;10.00;99.90;;;;;;5083687;28;20028;-74
2021/05/05 12:53:55;;;;;;;5.80;1.00;;;9.80;99.90;;;;;;5084269;28;20495;-76
2021/05/05 12:56:37;;;;;;;2.42;0.95;;;9.50;99.90;;;;;;5082205;28;20043;-73
2021/05/05 12:59:04;;;;;;;5.22;0.65;;;9.30;99.90;;;;;;5083856;28;20024;-75
2021/05/05 13:01:30;;;;;;;3.90;1.33;;;9.00;99.90;;;;;;5084470;28;20488;-73
2021/05/05 13:03:59;;;;;;;1.35;0.80;;;8.70;99.90;;;;;;5083841;28;20036;-73
2021/05/05 13:06:47;;;;;;;6.07;0.88;;;8.50;99.90;;;;;;5083917;28;20033;-76
2021/05/05 13:09:21;;;;;;;2.17;1.33;;;8.50;99.90;;;;;;5084324;28;20037;-75
2021/05/05 13:11:53;;;;;;;5.88;0.88;;;8.50;99.90;;;;;;5082052;28;20024;-72